This demonstration page uses our WeatherBlox Daily Observations layout. Learn more.

39.01783, -85.05884

Hourly Observations for February 22, 2019

Temp ( °F °C ) Dew Point ( °F °C ) Humidity (%) Winds ( mph kmh ) Pressure ( in mb ) Visibility ( mi km ) Precip ( " mm )
12:52 am 00:52 Cloudy 39 3.9 30 -1.1 70 70 NNE 7 11 30.27 1025 10 16.09344 0 0
1:52 am 01:52 Cloudy 39 3.9 29 -1.7 67 67 NNE 7 11 30.27 1025 9 14.484096 0 0
2:52 am 02:52 Cloudy 38 3.3 28 -2.2 68 68 NE 8 13 30.27 1025 9 14.484096 0 0
3:52 am 03:52 Cloudy 37 2.8 28 -2.2 70 70 NNE 9 15 30.27 1025 8 12.874752 0 0
4:52 am 04:52 Cloudy 37 2.8 28 -2.2 70 70 NNE 8 13 30.27 1025 7 11.265408 0 0
5:52 am 05:52 Cloudy 36 2.2 28 -2.2 73 73 NNE 9 15 30.3 1026 7 11.265408 0 0
6:52 am 06:52 Cloudy 36 2.2 28 -2.2 73 73 NNE 10 17 30.33 1027 7 11.265408 0 0
7:52 am 07:52 Cloudy with Haze 35 1.7 27 -2.8 72 72 ENE 9 15 30.36 1028 5 8.04672 0 0
8:52 am 08:52 Cloudy with Haze 36 2.2 28 -2.2 73 73 ENE 8 13 30.39 1029 5 8.04672 0 0
9:52 am 09:52 Cloudy with Haze 37 2.8 29 -1.7 73 73 ENE 8 13 30.39 1029 5 8.04672 0 0
10:52 am 10:52 Cloudy with Haze 39 3.9 29 -1.7 67 67 ENE 8 13 30.39 1029 6 9.656064 0 0
11:52 am 11:52 Cloudy with Haze 40 4.4 29 -1.7 65 65 NE 9 15 30.39 1029 6 9.656064 0 0
12:52 pm 12:52 Cloudy 41 5 28 -2.2 60 60 ENE 13 20 30.36 1028 7 11.265408 0 0
1:52 pm 13:52 Cloudy 43 6.1 28 -2.2 56 56 E 13 20 30.33 1027 8 12.874752 0 0
2:52 pm 14:52 Cloudy 43 6.1 28 -2.2 56 56 ENE 9 15 30.3 1026 7 11.265408 0 0
3:52 pm 15:52 Cloudy 43 6.1 27 -2.8 53 53 ENE 10 17 30.33 1027 8 12.874752 0 0
4:52 pm 16:52 Cloudy 43 6.1 29 -1.7 58 58 ENE 10 17 30.3 1026 8 12.874752 0 0
5:52 pm 17:52 Cloudy 42 5.6 30 -1.1 62 62 E 8 13 30.3 1026 7 11.265408 0 0
6:52 pm 18:52 Cloudy 42 5.6 30 -1.1 62 62 ENE 8 13 30.3 1026 8 12.874752 0 0
7:52 pm 19:52 Cloudy 42 5.6 31 -0.6 65 65 ENE 7 11 30.3 1026 8 12.874752 0 0
8:52 pm 20:52 Cloudy 41 5 31 -0.6 67 67 ENE 12 19 30.3 1026 8 12.874752 0 0
9:52 pm 21:52 Cloudy 40 4.4 30 -1.1 68 68 ENE 9 15 30.27 1025 7 11.265408 0 0
10:52 pm 22:52 Cloudy 40 4.4 30 -1.1 68 68 E 12 19 30.27 1025 7 11.265408 0 0
11:52 pm 23:52 Cloudy 40 4.4 30 -1.1 68 68 ENE 12 19 30.24 1024 8 12.874752 0 0

Powered by AerisWeather